Time;durP1;ratioP1;P1;durP2;ratioP2;P2;SDS_P1;SDS_P2;PMS_P1;PMS_P2;Temp;Humidity;BMP_temperature;BMP_pressure;BME280_temperature;BME280_humidity;BME280_pressure;Samples;Min_cycle;Max_cycle;Signal;HPM_P1;HPM_P2
2023/10/23 00:00:35;;;;;;;27.58;16.33;;;;;;;-146.25;100.00;52516.22;2104556;28;35718;-71
2023/10/23 00:01:39;;;;;;;28.55;15.98;;;;;;;-146.25;100.00;52506.06;2104839;28;32893;-72
2023/10/23 00:02:41;;;;;;;25.55;16.25;;;;;;;-146.25;100.00;52497.97;2112254;28;34057;-70
2023/10/23 00:03:43;;;;;;;24.67;15.32;;;;;;;-146.25;100.00;52514.19;2112024;28;33245;-73
2023/10/23 00:04:45;;;;;;;29.33;16.88;;;;;;;-146.25;100.00;52502.03;2104770;28;20045;-71
2023/10/23 00:05:47;;;;;;;22.38;15.43;;;;;;;-146.25;100.00;52573.00;2103960;28;35825;-72
2023/10/23 00:06:49;;;;;;;22.60;15.10;;;;;;;-146.25;100.00;52512.16;2104274;28;35752;-73
2023/10/23 00:07:51;;;;;;;24.45;16.30;;;;;;;-146.25;100.00;52548.66;2104129;28;34310;-72
2023/10/23 00:08:52;;;;;;;28.45;17.13;;;;;;;-146.25;100.00;52502.03;2103706;28;34073;-71
2023/10/23 00:09:54;;;;;;;30.83;16.75;;;;;;;-146.25;100.00;52522.28;2105078;28;29356;-73
2023/10/23 00:10:56;;;;;;;30.90;17.13;;;;;;;-146.25;100.00;52522.28;2105267;28;20037;-72
2023/10/23 00:11:58;;;;;;;24.75;16.15;;;;;;;-146.25;100.00;52518.25;2103988;28;32943;-72
2023/10/23 00:13:00;;;;;;;27.90;17.17;;;;;;;-146.25;100.00;52491.88;2103686;28;37306;-71
2023/10/23 00:14:02;;;;;;;22.23;15.63;;;;;;;-146.25;100.00;52506.06;2104857;28;32183;-72
2023/10/23 00:15:04;;;;;;;22.40;14.82;;;;;;;-146.25;100.00;52500.00;2104229;28;31416;-72
2023/10/23 00:16:06;;;;;;;27.75;16.52;;;;;;;-146.25;100.00;52500.00;2103831;28;38618;-73
2023/10/23 00:17:08;;;;;;;23.35;15.98;;;;;;;-146.25;100.00;52502.03;2103660;28;33652;-71
2023/10/23 00:18:10;;;;;;;26.38;16.67;;;;;;;-146.25;100.00;52502.03;2104824;28;35320;-72
2023/10/23 00:19:11;;;;;;;29.02;17.25;;;;;;;-146.25;100.00;52520.28;2105077;28;20041;-70
2023/10/23 00:20:13;;;;;;;31.33;17.63;;;;;;;-146.25;100.00;52536.50;2104173;28;35098;-73
2023/10/23 00:21:16;;;;;;;27.38;16.40;;;;;;;-146.25;100.00;52520.28;2104865;28;29489;-72
2023/10/23 00:22:18;;;;;;;26.20;16.67;;;;;;;-146.25;100.00;52483.78;2104460;28;27960;-72
2023/10/23 00:23:22;;;;;;;27.60;16.92;;;;;;;-146.25;100.00;52530.41;2104013;28;36629;-71
2023/10/23 00:24:25;;;;;;;27.02;16.38;;;;;;;-146.25;100.00;52550.69;2105673;28;20074;-72
2023/10/23 00:25:26;;;;;;;26.77;16.13;;;;;;;-146.25;100.00;52540.53;2104282;28;37635;-73
2023/10/23 00:26:30;;;;;;;25.15;16.02;;;;;;;-146.25;100.00;52471.59;2103374;28;34767;-72
2023/10/23 00:27:32;;;;;;;25.73;16.45;;;;;;;-146.25;100.00;52502.03;2104748;28;20886;-72
2023/10/23 00:28:34;;;;;;;28.77;17.95;;;;;;;-146.25;100.00;52532.44;2112419;28;21054;-73
2023/10/23 00:29:36;;;;;;;29.63;18.38;;;;;;;-146.25;100.00;52489.84;2095447;28;31971;-72
2023/10/23 00:30:38;;;;;;;34.13;18.83;;;;;;;-146.25;100.00;52475.66;2096323;28;20103;-73
2023/10/23 00:31:40;;;;;;;29.33;18.40;;;;;;;-146.25;100.00;52495.94;2103864;28;30205;-72
2023/10/23 00:33:07;;;;;;;30.40;17.98;;;;;;;-146.25;100.00;52457.41;2106242;27;28388;-73
2023/10/23 00:34:09;;;;;;;25.55;15.98;;;;;;;-146.25;100.00;52475.66;2088069;28;28241;-67
2023/10/23 00:35:11;;;;;;;29.15;17.95;;;;;;;-146.25;100.00;52526.34;2087340;28;31383;-68
2023/10/23 00:36:12;;;;;;;31.65;18.77;;;;;;;-146.25;100.00;52526.34;2087069;28;26330;-67
2023/10/23 00:37:14;;;;;;;31.08;18.70;;;;;;;-146.25;100.00;52526.34;2087741;28;27809;-67
2023/10/23 00:38:16;;;;;;;32.15;19.27;;;;;;;-146.25;100.00;52524.31;2087171;28;26134;-67
2023/10/23 00:39:18;;;;;;;35.33;20.45;;;;;;;-146.25;100.00;52502.03;2087915;28;29192;-67
2023/10/23 00:40:23;;;;;;;32.08;19.70;;;;;;;-146.25;100.00;52516.22;2088236;28;20192;-66
2023/10/23 00:41:25;;;;;;;29.67;17.50;;;;;;;-146.25;100.00;52500.00;2088295;28;25659;-67
2023/10/23 00:42:29;;;;;;;31.83;18.23;;;;;;;-146.25;100.00;52518.25;2088181;28;20041;-67
2023/10/23 00:43:31;;;;;;;34.67;19.30;;;;;;;-146.25;100.00;52497.97;2087094;28;32136;-67
2023/10/23 00:44:33;;;;;;;33.85;17.77;;;;;;;-146.25;100.00;52485.81;2087837;28;20108;-67
2023/10/23 00:45:37;;;;;;;24.75;15.65;;;;;;;-146.25;100.00;52526.34;2088116;28;29455;-67
2023/10/23 00:46:39;;;;;;;26.75;16.65;;;;;;;-146.25;100.00;52500.00;2086142;28;25904;-66
2023/10/23 00:47:41;;;;;;;28.00;16.98;;;;;;;-146.25;100.00;52495.94;2079135;28;28093;-66
2023/10/23 00:48:43;;;;;;;26.50;17.10;;;;;;;-146.25;100.00;52530.41;2087306;28;20135;-67
2023/10/23 00:49:45;;;;;;;24.83;15.45;;;;;;;-146.25;100.00;52502.03;2096545;28;20407;-67
2023/10/23 00:50:49;;;;;;;29.50;16.92;;;;;;;-146.25;100.00;52487.81;2087133;28;29133;-67
2023/10/23 00:51:51;;;;;;;32.60;16.08;;;;;;;-146.25;100.00;52510.13;2087454;28;28983;-67
2023/10/23 00:52:53;;;;;;;33.92;19.25;;;;;;;-146.25;100.00;52518.25;2087840;28;20892;-67
2023/10/23 00:53:56;;;;;;;34.67;18.50;;;;;;;-146.25;100.00;52495.94;2088298;28;31095;-67
2023/10/23 00:54:58;;;;;;;30.88;18.67;;;;;;;-146.25;100.00;52514.19;2087068;28;30000;-67
2023/10/23 00:56:02;;;;;;;27.98;17.42;;;;;;;-146.25;100.00;52522.28;2087712;28;26745;-67
2023/10/23 00:57:07;;;;;;;27.80;16.70;;;;;;;-146.25;100.00;52477.69;2079923;28;21358;-65
2023/10/23 00:58:09;;;;;;;24.13;15.25;;;;;;;-146.25;100.00;52536.50;2079532;28;28278;-67
2023/10/23 00:59:11;;;;;;;26.63;15.90;;;;;;;-146.25;100.00;52506.06;2087104;28;33068;-65
2023/10/23 01:00:16;;;;;;;32.55;17.63;;;;;;;-146.25;100.00;52526.34;2095427;28;21852;-67
2023/10/23 01:01:18;;;;;;;24.80;16.08;;;;;;;-146.25;100.00;52500.00;2095373;28;20033;-67
2023/10/23 01:02:20;;;;;;;32.03;15.93;;;;;;;-146.25;100.00;52483.78;2087910;28;34009;-67
2023/10/23 01:03:21;;;;;;;27.13;16.67;;;;;;;-146.25;100.00;52506.06;2087848;28;26055;-67
2023/10/23 01:04:24;;;;;;;27.92;16.70;;;;;;;-146.25;100.00;52506.06;2090004;28;31145;-67
2023/10/23 01:05:26;;;;;;;30.30;18.10;;;;;;;-146.25;100.00;52483.78;2087016;28;27692;-67
2023/10/23 01:06:31;;;;;;;26.63;16.23;;;;;;;-146.25;100.00;52516.22;2095274;28;31724;-67
2023/10/23 01:07:33;;;;;;;29.05;17.25;;;;;;;-146.25;100.00;52518.25;2086902;28;34565;-67
2023/10/23 01:08:35;;;;;;;26.02;16.10;;;;;;;-146.25;100.00;52528.38;2087809;28;24969;-67
2023/10/23 01:09:37;;;;;;;35.35;18.17;;;;;;;-146.25;100.00;52528.38;2087007;28;28653;-67
2023/10/23 01:10:39;;;;;;;23.40;14.65;;;;;;;-146.25;100.00;52522.28;2087797;28;31810;-66
2023/10/23 01:11:41;;;;;;;25.27;15.95;;;;;;;-146.25;100.00;52481.75;2087872;28;27184;-67
2023/10/23 01:12:45;;;;;;;28.02;16.33;;;;;;;-146.25;100.00;52508.09;2088636;28;20045;-67
2023/10/23 01:13:47;;;;;;;27.13;16.25;;;;;;;-146.25;100.00;52502.03;2087201;28;31269;-67
2023/10/23 01:14:48;;;;;;;26.25;16.40;;;;;;;-146.25;100.00;52475.66;2087564;28;29929;-67
2023/10/23 01:15:51;;;;;;;29.42;18.23;;;;;;;-146.25;100.00;52522.28;2087875;28;27878;-67
2023/10/23 01:16:52;;;;;;;28.13;16.92;;;;;;;-146.25;100.00;52508.09;2087944;28;26672;-67
2023/10/23 01:17:55;;;;;;;26.73;16.48;;;;;;;-146.25;100.00;52502.03;2087231;28;33712;-67
2023/10/23 01:18:57;;;;;;;27.88;16.55;;;;;;;-146.25;100.00;52502.03;2087142;28;34994;-67
2023/10/23 01:19:59;;;;;;;28.88;17.60;;;;;;;-146.25;100.00;52522.28;2086784;28;26371;-67
2023/10/23 01:21:01;;;;;;;27.00;16.67;;;;;;;-146.25;100.00;52508.09;2095964;28;21012;-67
2023/10/23 01:22:04;;;;;;;24.50;15.05;;;;;;;-146.25;100.00;52530.41;2095217;28;20037;-67
2023/10/23 01:23:08;;;;;;;26.90;17.33;;;;;;;-146.25;100.00;52530.41;2088170;28;27623;-67
2023/10/23 01:24:11;;;;;;;31.67;16.88;;;;;;;-146.25;100.00;52485.81;2086984;28;20045;-67
2023/10/23 01:25:15;;;;;;;31.50;17.23;;;;;;;-146.25;100.00;52510.13;2078934;28;27048;-67
2023/10/23 01:26:17;;;;;;;30.45;17.20;;;;;;;-146.25;100.00;52489.84;2087369;28;29479;-67
2023/10/23 01:27:19;;;;;;;26.63;15.77;;;;;;;-146.25;100.00;52487.81;2095800;28;20126;-65
2023/10/23 01:28:23;;;;;;;27.98;17.13;;;;;;;-146.25;100.00;52524.31;2086472;28;29744;-67
2023/10/23 01:29:25;;;;;;;32.78;19.33;;;;;;;-146.25;100.00;52514.19;2087842;28;25719;-66
2023/10/23 01:30:28;;;;;;;31.27;17.10;;;;;;;-146.25;100.00;52528.38;2087888;28;20858;-67
2023/10/23 01:31:30;;;;;;;32.65;18.42;;;;;;;-146.25;100.00;52522.28;2087791;28;31900;-67
2023/10/23 01:32:31;;;;;;;35.30;19.80;;;;;;;-146.25;100.00;52487.81;2087718;28;26094;-67
2023/10/23 01:33:34;;;;;;;29.42;16.90;;;;;;;-146.25;100.00;52526.34;2088014;28;20037;-67
2023/10/23 01:34:36;;;;;;;31.38;18.08;;;;;;;-146.25;100.00;52518.25;2087587;28;30207;-67
2023/10/23 01:35:38;;;;;;;27.88;16.38;;;;;;;-146.25;100.00;52518.25;2087726;28;26148;-67
2023/10/23 01:36:40;;;;;;;26.58;16.50;;;;;;;-146.25;100.00;52493.91;2087911;28;25153;-66
2023/10/23 01:37:45;;;;;;;26.95;15.63;;;;;;;-146.25;100.00;52506.06;2087923;28;26195;-67
2023/10/23 01:38:47;;;;;;;27.65;15.63;;;;;;;-146.25;100.00;52554.75;2087126;28;34605;-67
2023/10/23 01:39:49;;;;;;;25.50;15.27;;;;;;;-146.25;100.00;52536.50;2087844;28;20684;-67
2023/10/23 01:40:50;;;;;;;28.27;15.43;;;;;;;-146.25;100.00;52491.88;2087630;28;28438;-67
2023/10/23 01:41:52;;;;;;;26.38;15.70;;;;;;;-146.25;100.00;52510.13;2087370;28;20813;-67
2023/10/23 01:42:57;;;;;;;30.25;15.38;;;;;;;-146.25;100.00;52483.78;2087616;28;20863;-67
2023/10/23 01:43:59;;;;;;;32.05;17.60;;;;;;;-146.25;100.00;52497.97;2095052;28;30637;-67
2023/10/23 01:45:01;;;;;;;31.15;17.38;;;;;;;-146.25;100.00;52518.25;2086763;28;23070;-66
2023/10/23 01:46:02;;;;;;;34.35;16.88;;;;;;;-146.25;100.00;52542.56;2086914;28;32447;-67
2023/10/23 01:47:05;;;;;;;34.25;17.17;;;;;;;-146.25;100.00;52500.00;2087214;28;29442;-67
2023/10/23 01:48:06;;;;;;;29.67;16.70;;;;;;;-146.25;100.00;52562.84;2088188;28;20153;-68
2023/10/23 01:49:08;;;;;;;35.20;17.85;;;;;;;-146.25;100.00;52497.97;2086517;28;31719;-67
2023/10/23 01:50:10;;;;;;;35.15;19.75;;;;;;;-146.25;100.00;52534.47;2086894;28;34155;-68
2023/10/23 01:51:12;;;;;;;41.45;18.77;;;;;;;-146.25;100.00;52506.06;2088547;28;20176;-67
2023/10/23 01:52:13;;;;;;;38.83;18.00;;;;;;;-146.25;100.00;52522.28;2095327;28;32464;-67
2023/10/23 01:53:15;;;;;;;31.45;17.17;;;;;;;-146.25;100.00;52510.13;2096079;28;20850;-67
2023/10/23 01:54:17;;;;;;;30.00;16.80;;;;;;;-146.25;100.00;52524.31;2088003;28;20041;-67
2023/10/23 01:55:19;;;;;;;34.08;16.92;;;;;;;-146.25;100.00;52504.03;2086760;28;28840;-68
2023/10/23 01:56:21;;;;;;;31.27;16.13;;;;;;;-146.25;100.00;52520.28;2087468;28;20041;-67
2023/10/23 01:57:22;;;;;;;30.58;18.15;;;;;;;-146.25;100.00;52556.75;2095411;28;20156;-67
2023/10/23 01:58:24;;;;;;;27.85;15.98;;;;;;;-146.25;100.00;52506.06;2096545;28;20064;-67
2023/10/23 01:59:26;;;;;;;36.60;16.60;;;;;;;-146.25;100.00;52504.03;2080776;28;20046;-67
2023/10/23 02:00:28;;;;;;;31.83;18.42;;;;;;;-146.25;100.00;52512.16;2079262;28;25692;-68
2023/10/23 02:01:32;;;;;;;29.83;16.83;;;;;;;-146.25;100.00;52524.31;2088994;28;20033;-68
2023/10/23 02:02:33;;;;;;;30.05;16.88;;;;;;;-146.25;100.00;52491.88;2087974;28;23466;-68
2023/10/23 02:03:35;;;;;;;34.83;17.88;;;;;;;-146.25;100.00;52566.91;2089007;28;20955;-68
2023/10/23 02:04:40;;;;;;;35.20;18.25;;;;;;;-146.25;100.00;52522.28;2080917;28;20100;-67
2023/10/23 02:05:47;;;;;;;31.25;16.67;;;;;;;-146.25;100.00;52518.25;2088445;28;24759;-67
2023/10/23 02:06:49;;;;;;;36.67;17.95;;;;;;;-146.25;100.00;52528.38;2095788;28;27770;-67
2023/10/23 02:07:51;;;;;;;30.45;17.23;;;;;;;-146.25;100.00;52554.75;2096845;28;33443;-67
2023/10/23 02:08:52;;;;;;;36.20;18.70;;;;;;;-146.25;100.00;52514.19;2097500;28;21421;-68
2023/10/23 02:09:58;;;;;;;33.88;18.10;;;;;;;-146.25;100.00;52520.28;2096991;28;28539;-67
2023/10/23 02:10:59;;;;;;;40.30;17.50;;;;;;;-146.25;100.00;52516.22;2097443;28;25709;-67
2023/10/23 02:12:01;;;;;;;35.53;17.98;;;;;;;-146.25;100.00;52554.75;2097987;28;20028;-67
2023/10/23 02:13:04;;;;;;;36.88;18.08;;;;;;;-146.25;100.00;52510.13;2096835;28;33101;-67
2023/10/23 02:14:07;;;;;;;38.08;18.58;;;;;;;-146.25;100.00;52504.03;2097936;28;20025;-66
2023/10/23 02:15:10;;;;;;;36.28;18.45;;;;;;;-146.25;100.00;52514.19;2095969;28;32744;-67
2023/10/23 02:16:12;;;;;;;32.42;16.70;;;;;;;-146.25;100.00;52522.28;2096558;28;30054;-66
2023/10/23 02:17:15;;;;;;;31.42;17.38;;;;;;;-146.25;100.00;52491.88;2079705;28;20848;-67
2023/10/23 02:18:17;;;;;;;34.95;18.10;;;;;;;-146.25;100.00;52516.22;2072294;28;28043;-66
2023/10/23 02:19:18;;;;;;;30.45;16.92;;;;;;;-146.25;100.00;52518.25;2080144;28;20153;-67
2023/10/23 02:20:22;;;;;;;31.92;17.27;;;;;;;-146.25;100.00;52516.22;2080082;28;30133;-66
2023/10/23 02:21:23;;;;;;;29.27;16.05;;;;;;;-146.25;100.00;52489.84;2088133;28;20046;-67
2023/10/23 02:22:25;;;;;;;33.05;17.52;;;;;;;-146.25;100.00;52483.78;2088346;28;29211;-67
2023/10/23 02:23:30;;;;;;;33.92;18.50;;;;;;;-146.25;100.00;52479.72;2088268;28;26975;-67
2023/10/23 02:24:38;;;;;;;32.38;17.40;;;;;;;-146.25;100.00;52500.00;2088273;28;22969;-67
2023/10/23 02:25:40;;;;;;;33.38;16.38;;;;;;;-146.25;100.00;52497.97;2087935;28;25608;-67
2023/10/23 02:26:42;;;;;;;31.67;16.98;;;;;;;-146.25;100.00;52481.75;2080000;28;20048;-66
2023/10/23 02:27:44;;;;;;;30.98;15.73;;;;;;;-146.25;100.00;52564.88;2087704;28;27882;-67
2023/10/23 02:28:48;;;;;;;41.17;19.08;;;;;;;-146.25;100.00;52502.03;2088979;28;20041;-66
2023/10/23 02:29:50;;;;;;;37.47;18.38;;;;;;;-146.25;100.00;52516.22;2088463;28;20175;-67
2023/10/23 02:30:51;;;;;;;39.38;18.27;;;;;;;-146.25;100.00;52493.91;2080061;28;31847;-67
2023/10/23 02:31:53;;;;;;;39.58;19.63;;;;;;;-146.25;100.00;52504.03;2087831;28;33778;-67
2023/10/23 02:32:55;;;;;;;47.80;18.80;;;;;;;-146.25;100.00;52510.13;2087994;28;25631;-67
2023/10/23 02:33:57;;;;;;;37.78;17.77;;;;;;;-146.25;100.00;52510.13;2088171;28;29681;-67
2023/10/23 02:34:59;;;;;;;51.50;19.88;;;;;;;-146.25;100.00;52530.41;2088623;28;20041;-66
2023/10/23 02:36:01;;;;;;;39.28;17.85;;;;;;;-146.25;100.00;52534.47;2096914;28;28117;-66
2023/10/23 02:37:04;;;;;;;37.30;19.05;;;;;;;-146.25;100.00;52534.47;2096118;28;33241;-66
2023/10/23 02:38:06;;;;;;;42.03;17.90;;;;;;;-146.25;100.00;52534.47;2088029;28;37080;-66
2023/10/23 02:39:07;;;;;;;40.97;19.58;;;;;;;-146.25;100.00;52522.28;2079963;28;30924;-67
2023/10/23 02:40:10;;;;;;;42.58;18.92;;;;;;;-146.25;100.00;52463.50;2086471;28;27025;-67
2023/10/23 02:41:11;;;;;;;43.03;19.65;;;;;;;-146.25;100.00;52471.59;2088958;28;20300;-67
2023/10/23 02:42:13;;;;;;;39.95;18.95;;;;;;;-146.25;100.00;52497.97;2088152;28;28751;-66
2023/10/23 02:43:15;;;;;;;40.25;19.58;;;;;;;-146.25;100.00;52526.34;2088759;28;35590;-67
2023/10/23 02:44:18;;;;;;;43.67;19.25;;;;;;;-146.25;100.00;52510.13;2088231;28;31842;-66
2023/10/23 02:45:20;;;;;;;42.25;19.20;;;;;;;-146.25;100.00;52526.34;2088647;28;33460;-66
2023/10/23 02:46:24;;;;;;;33.78;18.15;;;;;;;-146.25;100.00;52522.28;2088981;28;21011;-66
2023/10/23 02:47:26;;;;;;;40.22;18.20;;;;;;;-146.25;100.00;52506.06;2088697;28;34305;-67
2023/10/23 02:48:28;;;;;;;40.05;19.35;;;;;;;-146.25;100.00;52528.38;2087560;28;30183;-66
2023/10/23 02:49:30;;;;;;;40.95;19.88;;;;;;;-146.25;100.00;52548.66;2080481;28;20773;-68
2023/10/23 02:50:31;;;;;;;48.60;19.45;;;;;;;-146.25;100.00;52489.84;2087641;28;38675;-66
2023/10/23 02:51:33;;;;;;;43.40;19.35;;;;;;;-146.25;100.00;52497.97;2088846;28;25524;-68
2023/10/23 02:52:38;;;;;;;51.25;19.15;;;;;;;-146.25;100.00;52502.03;2088741;28;30511;-67
2023/10/23 02:53:39;;;;;;;65.25;20.13;;;;;;;-146.25;100.00;52506.06;2088627;28;29722;-67
2023/10/23 02:54:41;;;;;;;54.30;19.95;;;;;;;-146.25;100.00;52530.41;2088596;28;28919;-66
2023/10/23 02:55:45;;;;;;;42.92;19.33;;;;;;;-146.25;100.00;52548.66;2087226;28;20189;-65
2023/10/23 02:56:47;;;;;;;97.40;21.42;;;;;;;-146.25;100.00;52514.19;2090029;28;20034;-67
2023/10/23 02:57:49;;;;;;;65.20;19.88;;;;;;;-146.25;100.00;52540.53;2089350;28;20045;-66
2023/10/23 02:58:52;;;;;;;47.38;18.58;;;;;;;-146.25;100.00;52510.13;2089004;28;20872;-66
2023/10/23 02:59:58;;;;;;;43.50;19.25;;;;;;;-146.25;100.00;52532.44;2088760;28;20041;-67
2023/10/23 03:01:00;;;;;;;46.55;20.33;;;;;;;-146.25;100.00;52518.25;2088613;28;28176;-66
2023/10/23 03:02:02;;;;;;;41.95;19.23;;;;;;;-146.25;100.00;52516.22;2088345;28;20049;-67
2023/10/23 03:03:04;;;;;;;45.35;17.92;;;;;;;-146.25;100.00;52534.47;2087285;28;36878;-67
2023/10/23 03:04:06;;;;;;;51.28;20.10;;;;;;;-146.25;100.00;52544.59;2088691;28;34753;-67
2023/10/23 03:05:08;;;;;;;37.45;19.73;;;;;;;-146.25;100.00;52500.00;2088138;28;30722;-67
2023/10/23 03:06:10;;;;;;;49.00;20.88;;;;;;;-146.25;100.00;52530.41;2088603;28;23603;-67
2023/10/23 03:07:15;;;;;;;49.90;20.02;;;;;;;-146.25;100.00;52518.25;2087702;28;24579;-66
2023/10/23 03:08:19;;;;;;;48.05;20.88;;;;;;;-146.25;100.00;52512.16;2088653;28;21011;-67
2023/10/23 03:09:21;;;;;;;51.47;19.23;;;;;;;-146.25;100.00;52508.09;2087425;28;33186;-66
2023/10/23 03:10:23;;;;;;;45.20;20.77;;;;;;;-146.25;100.00;52516.22;2087851;28;26884;-66
2023/10/23 03:11:24;;;;;;;52.50;18.55;;;;;;;-146.25;100.00;52520.28;2087021;28;26326;-66
2023/10/23 03:12:27;;;;;;;47.65;18.13;;;;;;;-146.25;100.00;52506.06;2097421;28;20102;-67
2023/10/23 03:13:28;;;;;;;58.80;21.25;;;;;;;-146.25;100.00;52524.31;2088086;28;31614;-66
2023/10/23 03:14:30;;;;;;;56.05;20.38;;;;;;;-146.25;100.00;52520.28;2088714;28;37210;-66
2023/10/23 03:15:32;;;;;;;55.13;20.10;;;;;;;-146.25;100.00;52508.09;2087676;28;24561;-66
2023/10/23 03:16:34;;;;;;;70.40;21.92;;;;;;;-146.25;100.00;52528.38;2087870;28;30081;-67
2023/10/23 03:17:36;;;;;;;75.47;21.35;;;;;;;-146.25;100.00;52493.91;2089040;28;20889;-66
2023/10/23 03:18:38;;;;;;;118.50;22.23;;;;;;;-146.25;100.00;52506.06;2088645;28;32372;-66
2023/10/23 03:19:40;;;;;;;124.45;22.75;;;;;;;-146.25;100.00;52542.56;2087790;28;32989;-66
2023/10/23 03:20:44;;;;;;;460.08;31.52;;;;;;;-146.25;100.00;52520.28;2088158;28;29897;-66
2023/10/23 03:21:46;;;;;;;262.65;24.40;;;;;;;-146.25;100.00;52514.19;2088447;28;20085;-67
2023/10/23 03:22:50;;;;;;;262.98;25.58;;;;;;;-146.25;100.00;52489.84;2096763;28;20189;-66
2023/10/23 03:23:52;;;;;;;237.15;23.58;;;;;;;-146.25;100.00;52491.88;2088358;28;25980;-66
2023/10/23 03:24:54;;;;;;;116.28;22.67;;;;;;;-146.25;100.00;52500.00;2087375;28;33017;-66
2023/10/23 03:25:56;;;;;;;183.55;23.13;;;;;;;-146.25;100.00;52522.28;2087717;28;27453;-66
2023/10/23 03:26:58;;;;;;;102.80;21.83;;;;;;;-146.25;100.00;52538.53;2088526;28;31030;-66
2023/10/23 03:28:00;;;;;;;178.13;23.23;;;;;;;-146.25;100.00;52512.16;2088157;28;26412;-66
2023/10/23 03:29:04;;;;;;;283.92;26.52;;;;;;;-146.25;100.00;52500.00;2088983;28;21204;-65
2023/10/23 03:30:06;;;;;;;125.53;22.20;;;;;;;-146.25;100.00;52506.06;2088416;28;26122;-66
2023/10/23 03:31:08;;;;;;;97.20;21.73;;;;;;;-146.25;100.00;52522.28;2088950;28;20176;-67
2023/10/23 03:32:10;;;;;;;151.50;23.95;;;;;;;-146.25;100.00;52526.34;2088597;28;24301;-66
2023/10/23 03:33:13;;;;;;;278.77;25.55;;;;;;;-146.25;100.00;52512.16;2088904;28;20096;-66
2023/10/23 03:34:14;;;;;;;203.07;22.00;;;;;;;-146.25;100.00;52506.06;2087461;28;30274;-66
2023/10/23 03:35:18;;;;;;;258.58;22.48;;;;;;;-146.25;100.00;52506.06;2088245;28;22460;-67
2023/10/23 03:36:20;;;;;;;310.83;24.23;;;;;;;-146.25;100.00;52502.03;2087715;28;20896;-66
2023/10/23 03:37:24;;;;;;;294.30;24.60;;;;;;;-146.25;100.00;52502.03;2080155;28;20066;-66
2023/10/23 03:38:27;;;;;;;382.13;30.90;;;;;;;-146.25;100.00;52485.81;2088184;28;20092;-66
2023/10/23 03:39:28;;;;;;;263.60;29.42;;;;;;;-146.25;100.00;52526.34;2088320;28;28268;-66
2023/10/23 03:40:30;;;;;;;175.18;24.52;;;;;;;-146.25;100.00;52493.91;2087228;28;29337;-66
2023/10/23 03:41:35;;;;;;;220.02;23.90;;;;;;;-146.25;100.00;52504.03;2088086;28;20817;-67
2023/10/23 03:42:37;;;;;;;280.33;28.42;;;;;;;-146.25;100.00;52516.22;2088377;28;31803;-66
2023/10/23 03:43:40;;;;;;;111.68;21.15;;;;;;;-146.25;100.00;52500.00;2095988;28;29375;-66
2023/10/23 03:44:42;;;;;;;168.73;22.48;;;;;;;-146.25;100.00;52550.69;2095810;28;20045;-66
2023/10/23 03:45:44;;;;;;;117.10;22.45;;;;;;;-146.25;100.00;52524.31;2088271;28;29040;-66
2023/10/23 03:46:46;;;;;;;91.93;19.73;;;;;;;-146.25;100.00;52502.03;2088116;28;32673;-66
2023/10/23 03:47:47;;;;;;;142.88;24.17;;;;;;;-146.25;100.00;52546.63;2088886;28;23131;-66
2023/10/23 03:48:52;;;;;;;158.95;23.75;;;;;;;-146.25;100.00;52536.50;2087762;28;29075;-67
2023/10/23 03:49:53;;;;;;;206.73;23.17;;;;;;;-146.25;100.00;52489.84;2088302;28;27127;-66
2023/10/23 03:51:00;;;;;;;174.27;24.23;;;;;;;-146.25;100.00;52526.34;2088086;28;20104;-66
2023/10/23 03:52:04;;;;;;;205.63;26.02;;;;;;;-146.25;100.00;52550.69;2087676;28;34764;-66
2023/10/23 03:53:06;;;;;;;242.13;26.80;;;;;;;-146.25;100.00;52536.50;2088072;28;34620;-66
2023/10/23 03:54:07;;;;;;;86.47;22.00;;;;;;;-146.25;100.00;52530.41;2087551;28;31038;-65
2023/10/23 03:55:09;;;;;;;82.20;20.33;;;;;;;-146.25;100.00;52538.53;2086905;28;35607;-66
2023/10/23 03:56:11;;;;;;;88.40;23.17;;;;;;;-146.25;100.00;52532.44;2088225;28;33734;-66
2023/10/23 03:57:15;;;;;;;115.47;24.10;;;;;;;-146.25;100.00;52508.09;2087751;28;36900;-66
2023/10/23 03:58:17;;;;;;;187.50;25.10;;;;;;;-146.25;100.00;52534.47;2088318;28;33800;-66
2023/10/23 03:59:19;;;;;;;157.43;24.75;;;;;;;-146.25;100.00;52491.88;2087736;28;35544;-66
2023/10/23 04:00:20;;;;;;;292.60;26.80;;;;;;;-146.25;100.00;52550.69;2088506;28;33589;-66
2023/10/23 04:01:22;;;;;;;288.70;26.73;;;;;;;-146.25;100.00;52473.63;2087872;28;33795;-66
2023/10/23 04:02:24;;;;;;;214.57;23.73;;;;;;;-146.25;100.00;52520.28;2088553;28;20048;-66
2023/10/23 04:03:26;;;;;;;90.80;21.48;;;;;;;-146.25;100.00;52493.91;2087547;28;34235;-66
2023/10/23 04:04:30;;;;;;;192.48;23.58;;;;;;;-146.25;100.00;52514.19;2087835;28;36938;-66
2023/10/23 04:05:41;;;;;;;177.18;22.15;;;;;;;-146.25;100.00;52546.63;2087846;28;30900;-66
2023/10/23 04:06:45;;;;;;;159.05;20.88;;;;;;;-146.25;100.00;52487.81;2088185;28;36487;-66
2023/10/23 04:07:49;;;;;;;169.80;21.48;;;;;;;-146.25;100.00;52528.38;2088227;28;23879;-66
2023/10/23 04:08:52;;;;;;;196.60;25.23;;;;;;;-146.25;100.00;52510.13;2088144;28;36951;-66
2023/10/23 04:09:54;;;;;;;157.38;22.33;;;;;;;-146.25;100.00;52530.41;2087541;28;34325;-66
2023/10/23 04:10:59;;;;;;;173.55;21.13;;;;;;;-146.25;100.00;52520.28;2088124;28;34968;-66
2023/10/23 04:12:03;;;;;;;311.48;23.98;;;;;;;-146.25;100.00;52546.63;2095802;28;33678;-66
2023/10/23 04:13:05;;;;;;;222.10;22.10;;;;;;;-146.25;100.00;52524.31;2094892;28;34126;-65
2023/10/23 04:14:08;;;;;;;139.10;19.73;;;;;;;-146.25;100.00;52532.44;2095782;28;35148;-66
2023/10/23 04:15:10;;;;;;;228.40;24.80;;;;;;;-146.25;100.00;52518.25;2095030;28;38034;-65
2023/10/23 04:16:12;;;;;;;136.10;20.98;;;;;;;-146.25;100.00;52512.16;2087931;28;34874;-66
2023/10/23 04:17:14;;;;;;;106.53;21.30;;;;;;;-146.25;100.00;52497.97;2087869;28;32743;-66
2023/10/23 04:18:16;;;;;;;146.18;20.13;;;;;;;-146.25;100.00;52491.88;2087951;28;35703;-66
2023/10/23 04:19:18;;;;;;;115.15;20.27;;;;;;;-146.25;100.00;52524.31;2088128;28;34168;-66
2023/10/23 04:20:20;;;;;;;95.82;20.75;;;;;;;-146.25;100.00;52530.41;2087491;28;33632;-65
2023/10/23 04:21:23;;;;;;;164.57;22.13;;;;;;;-146.25;100.00;52489.84;2088072;28;37494;-66
2023/10/23 04:22:25;;;;;;;94.13;19.88;;;;;;;-146.25;100.00;52512.16;2087402;28;32451;-66
2023/10/23 04:23:28;;;;;;;67.10;20.30;;;;;;;-146.25;100.00;52526.34;2088556;28;20045;-66
2023/10/23 04:24:30;;;;;;;140.52;20.98;;;;;;;-146.25;100.00;52522.28;2087405;28;37884;-67
2023/10/23 04:25:31;;;;;;;105.63;20.48;;;;;;;-146.25;100.00;52538.53;2095680;28;37061;-67
2023/10/23 04:26:33;;;;;;;128.95;19.60;;;;;;;-146.25;100.00;52546.63;2095440;28;20037;-66
2023/10/23 04:27:38;;;;;;;317.98;27.55;;;;;;;-146.25;100.00;52514.19;2087611;28;33783;-66
2023/10/23 04:28:40;;;;;;;174.25;21.80;;;;;;;-146.25;100.00;52479.72;2086955;28;33254;-67
2023/10/23 04:29:41;;;;;;;199.45;23.17;;;;;;;-146.25;100.00;52530.41;2088166;28;35503;-66
2023/10/23 04:30:43;;;;;;;199.70;23.27;;;;;;;-146.25;100.00;52562.84;2087646;28;35596;-66
2023/10/23 04:31:47;;;;;;;183.18;22.17;;;;;;;-146.25;100.00;52514.19;2088084;28;34666;-66
2023/10/23 04:32:49;;;;;;;166.10;22.80;;;;;;;-146.25;100.00;52528.38;2087418;28;30325;-66
2023/10/23 04:33:51;;;;;;;241.30;23.52;;;;;;;-146.25;100.00;52530.41;2088063;28;37730;-67
2023/10/23 04:34:53;;;;;;;337.15;29.27;;;;;;;-146.25;100.00;52526.34;2087570;28;35481;-66
2023/10/23 04:35:56;;;;;;;216.23;24.95;;;;;;;-146.25;100.00;52522.28;2088412;28;20047;-67
2023/10/23 04:36:58;;;;;;;134.52;23.98;;;;;;;-146.25;100.00;52524.31;2088265;28;20033;-67